Time;durP1;ratioP1;P1;durP2;ratioP2;P2;SDS_P1;SDS_P2;PMS_P1;PMS_P2;Temp;Humidity;BMP_temperature;BMP_pressure;BME280_temperature;BME280_humidity;BME280_pressure;Samples;Min_cycle;Max_cycle;Signal;HPM_P1;HPM_P2
2022/10/07 00:01:56;;;;;;;9.25;2.45;;;11.80;99.90;;;;;;5054838;28;20112;-75
2022/10/07 00:04:21;;;;;;;15.13;2.58;;;10.90;99.90;;;;;;5054650;28;20037;-76
2022/10/07 00:06:47;;;;;;;8.55;1.98;;;10.90;99.90;;;;;;5054667;28;20182;-75
2022/10/07 00:09:13;;;;;;;14.75;2.63;;;10.90;99.90;;;;;;5053358;28;20047;-75
2022/10/07 00:11:39;;;;;;;13.70;2.42;;;10.90;99.90;;;;;;5053620;28;20040;-75
2022/10/07 00:14:06;;;;;;;11.40;2.42;;;11.10;99.90;;;;;;5054290;28;20029;-75
2022/10/07 00:16:40;;;;;;;9.50;2.20;;;10.90;99.90;;;;;;5054373;28;20037;-74
2022/10/07 00:19:08;;;;;;;10.57;2.13;;;11.20;99.90;;;;;;5062392;28;20062;-75
2022/10/07 00:21:36;;;;;;;13.60;2.75;;;11.00;99.90;;;;;;5074316;28;20057;-76
2022/10/07 00:24:02;;;;;;;17.65;3.53;;;10.90;99.90;;;;;;5073831;28;20043;-75
2022/10/07 00:26:32;;;;;;;9.30;2.50;;;10.70;99.90;;;;;;5056340;28;20086;-75
2022/10/07 00:28:58;;;;;;;10.88;2.67;;;10.90;99.90;;;;;;5072252;28;20485;-75
2022/10/07 00:31:26;;;;;;;16.45;2.92;;;10.80;99.90;;;;;;5074268;28;20076;-74
2022/10/07 00:33:53;;;;;;;12.75;3.10;;;11.00;99.90;;;;;;5064393;28;20036;-74
2022/10/07 00:36:22;;;;;;;10.57;2.20;;;10.60;99.90;;;;;;5071681;28;20113;-74
2022/10/07 00:38:56;;;;;;;14.23;2.53;;;10.70;99.90;;;;;;5056210;28;20131;-75
2022/10/07 00:41:26;;;;;;;10.20;2.85;;;10.80;99.90;;;;;;5072889;28;20075;-75
2022/10/07 00:43:51;;;;;;;14.90;2.90;;;11.00;99.90;;;;;;5072269;28;20046;-75
2022/10/07 00:46:34;;;;;;;12.95;3.13;;;10.50;99.90;;;;;;5072837;28;20480;-74
2022/10/07 00:49:12;;;;;;;11.65;3.03;;;10.90;99.90;;;;;;5072682;28;20036;-75
2022/10/07 00:51:40;;;;;;;7.90;2.47;;;10.90;99.90;;;;;;5070857;28;20033;-74
2022/10/07 00:54:11;;;;;;;13.88;3.35;;;10.70;99.90;;;;;;5072774;28;20037;-74
2022/10/07 00:56:38;;;;;;;11.55;2.75;;;10.80;99.90;;;;;;5074077;28;20086;-76
2022/10/07 00:59:04;;;;;;;15.90;3.00;;;10.90;99.90;;;;;;5072301;28;20045;-74
2022/10/07 01:01:30;;;;;;;7.97;3.13;;;10.90;99.90;;;;;;5059582;28;20094;-76
2022/10/07 01:03:56;;;;;;;9.27;2.80;;;10.70;99.90;;;;;;5050870;28;20037;-75
2022/10/07 01:06:22;;;;;;;12.55;3.53;;;10.60;99.90;;;;;;5053545;28;20041;-75
2022/10/07 01:08:51;;;;;;;15.45;3.22;;;10.60;99.90;;;;;;5035641;28;20048;-74
2022/10/07 01:11:32;;;;;;;10.70;2.95;;;10.80;99.90;;;;;;5052436;28;20065;-75
2022/10/07 01:13:57;;;;;;;10.10;2.47;;;10.70;99.90;;;;;;5052706;28;20095;-73
2022/10/07 01:16:29;;;;;;;12.85;3.53;;;10.60;99.90;;;;;;5051962;28;20502;-75
2022/10/07 01:19:13;;;;;;;13.02;3.53;;;10.70;99.90;;;;;;5052300;28;20491;-74
2022/10/07 01:22:14;;;;;;;13.43;3.92;;;10.70;99.90;;;;;;5052166;28;20498;-74
2022/10/07 01:25:13;;;;;;;8.77;2.97;;;10.80;99.90;;;;;;5035341;28;20071;-75
2022/10/07 01:27:46;;;;;;;15.18;3.13;;;10.70;99.90;;;;;;5035475;28;20033;-75
2022/10/07 01:30:12;;;;;;;;;;;10.60;99.90;;;;;;5053873;28;20040;-76
2022/10/07 01:32:53;;;;;;;12.88;3.17;;;10.60;99.90;;;;;;5035523;28;19975;-76
2022/10/07 01:35:24;;;;;;;11.43;3.67;;;10.50;99.90;;;;;;5051743;28;20048;-75
2022/10/07 01:37:53;;;;;;;10.15;2.72;;;10.60;99.90;;;;;;5051899;28;20044;-75
2022/10/07 01:40:25;;;;;;;12.02;3.13;;;10.50;99.90;;;;;;5052944;28;20098;-74
2022/10/07 01:42:53;;;;;;;14.65;3.10;;;10.50;99.90;;;;;;5049937;28;20049;-75
2022/10/07 01:45:21;;;;;;;7.65;3.25;;;10.60;99.90;;;;;;5071289;28;20518;-75
2022/10/07 01:47:47;;;;;;;14.98;4.78;;;10.60;99.90;;;;;;5071465;28;20036;-75
2022/10/07 01:50:14;;;;;;;12.02;3.55;;;10.60;99.90;;;;;;5054863;28;20037;-75
2022/10/07 01:52:59;;;;;;;11.07;3.28;;;10.50;99.90;;;;;;5071531;28;20040;-75
2022/10/07 01:55:55;;;;;;;10.60;3.20;;;10.40;99.90;;;;;;5065370;28;20079;-75
2022/10/07 01:58:45;;;;;;;10.88;3.42;;;10.50;99.90;;;;;;5053470;28;20076;-75
2022/10/07 02:01:39;;;;;;;14.05;3.83;;;10.50;99.90;;;;;;5051441;28;20044;-74
2022/10/07 02:04:24;;;;;;;;;;;10.50;99.90;;;;;;5051491;28;20077;-74
2022/10/07 02:06:58;;;;;;;18.52;3.67;;;10.50;99.90;;;;;;5051479;28;19921;-74
2022/10/07 02:09:50;;;;;;;9.73;3.40;;;10.50;99.90;;;;;;5056151;28;20036;-75
2022/10/07 02:12:48;;;;;;;13.70;3.80;;;10.50;99.90;;;;;;5053968;28;20044;-75
2022/10/07 02:15:50;;;;;;;11.45;3.58;;;10.50;99.90;;;;;;5065097;28;20040;-75
2022/10/07 02:18:18;;;;;;;10.40;2.75;;;10.20;99.90;;;;;;5044775;28;20052;-75
2022/10/07 02:20:50;;;;;;;14.50;3.60;;;10.80;99.90;;;;;;5069996;28;20040;-74
2022/10/07 02:23:18;;;;;;;17.33;3.65;;;10.30;99.90;;;;;;5075224;28;20546;-73
2022/10/07 02:25:49;;;;;;;12.98;3.28;;;10.30;99.90;;;;;;5068210;28;20040;-73
2022/10/07 02:28:21;;;;;;;16.15;4.03;;;10.50;99.90;;;;;;5054496;28;20037;-73
2022/10/07 02:30:52;;;;;;;16.90;3.80;;;10.30;99.90;;;;;;5071630;28;20048;-72
2022/10/07 02:33:19;;;;;;;19.10;4.28;;;10.30;99.90;;;;;;5071355;28;20094;-74
2022/10/07 02:35:54;;;;;;;11.75;2.92;;;10.20;99.90;;;;;;5072190;28;20064;-74
2022/10/07 02:38:20;;;;;;;15.32;3.50;;;10.40;99.90;;;;;;5053946;28;20037;-74
2022/10/07 02:41:10;;;;;;;19.13;4.07;;;10.20;99.90;;;;;;5070537;28;20048;-73
2022/10/07 02:43:45;;;;;;;15.05;3.88;;;10.10;99.90;;;;;;5068898;28;20044;-74
2022/10/07 02:46:25;;;;;;;14.00;3.45;;;10.20;99.90;;;;;;5059191;28;20091;-74
2022/10/07 02:48:57;;;;;;;18.02;3.92;;;10.00;99.90;;;;;;5051884;28;20428;-74
2022/10/07 02:51:28;;;;;;;10.73;3.53;;;10.20;99.90;;;;;;5052222;28;20052;-73
2022/10/07 02:53:56;;;;;;;11.38;3.65;;;10.20;99.90;;;;;;5050408;28;20513;-73
2022/10/07 02:56:25;;;;;;;10.98;3.42;;;10.00;99.90;;;;;;5051943;28;20052;-73
2022/10/07 02:58:52;;;;;;;10.57;3.17;;;10.10;99.90;;;;;;5054031;28;20033;-73
2022/10/07 03:01:23;;;;;;;13.52;4.03;;;10.20;99.90;;;;;;5051835;28;20445;-72
2022/10/07 03:03:49;;;;;;;16.08;4.10;;;10.40;99.90;;;;;;5050550;28;20132;-72
2022/10/07 03:06:18;;;;;;;11.52;4.10;;;10.30;99.90;;;;;;5050413;28;20567;-73
2022/10/07 03:08:43;;;;;;;13.90;4.38;;;10.20;99.90;;;;;;5051799;28;20065;-73
2022/10/07 03:11:09;;;;;;;14.27;3.60;;;10.40;99.90;;;;;;5063277;28;20519;-74
2022/10/07 03:13:35;;;;;;;16.33;3.85;;;10.20;99.90;;;;;;5071585;28;20047;-73
2022/10/07 03:16:03;;;;;;;15.20;4.45;;;10.40;99.90;;;;;;5069646;28;20044;-73
2022/10/07 03:18:29;;;;;;;13.10;4.10;;;10.30;99.90;;;;;;5071782;28;20048;-73
2022/10/07 03:20:56;;;;;;;16.40;4.20;;;10.20;99.90;;;;;;5070703;28;20051;-73
2022/10/07 03:23:23;;;;;;;8.73;3.28;;;10.30;99.90;;;;;;5070527;28;20584;-74
2022/10/07 03:25:51;;;;;;;15.65;3.55;;;10.40;99.90;;;;;;5067357;28;20068;-73
2022/10/07 03:28:20;;;;;;;21.92;4.43;;;10.20;99.90;;;;;;5070549;28;20550;-74
2022/10/07 03:30:47;;;;;;;23.33;4.05;;;10.20;99.90;;;;;;5057989;28;20083;-74
2022/10/07 03:33:13;;;;;;;14.13;4.10;;;10.20;99.90;;;;;;5055829;28;20094;-74
2022/10/07 03:35:39;;;;;;;15.90;3.75;;;10.20;99.90;;;;;;5075754;28;20067;-73
2022/10/07 03:38:07;;;;;;;16.30;4.00;;;10.20;99.90;;;;;;5074083;28;20474;-74
2022/10/07 03:40:33;;;;;;;17.55;4.13;;;10.10;99.90;;;;;;5073981;28;20115;-74
2022/10/07 03:42:59;;;;;;;17.55;4.25;;;10.20;99.90;;;;;;5075257;28;20083;-73
2022/10/07 03:45:25;;;;;;;14.30;3.63;;;10.70;99.90;;;;;;5074950;28;20090;-74
2022/10/07 03:47:51;;;;;;;17.02;4.53;;;10.20;99.90;;;;;;5073761;28;20037;-74
2022/10/07 03:50:17;;;;;;;17.83;3.72;;;10.10;99.90;;;;;;5056129;28;20082;-72
2022/10/07 03:52:44;;;;;;;13.43;4.13;;;10.20;99.90;;;;;;5055312;28;20041;-71
2022/10/07 03:55:10;;;;;;;14.25;3.65;;;10.10;99.90;;;;;;5054930;28;20056;-73
2022/10/07 03:57:51;;;;;;;11.23;3.97;;;10.20;99.90;;;;;;5054920;28;20041;-74
2022/10/07 04:00:19;;;;;;;15.20;3.88;;;10.20;99.90;;;;;;5055119;28;20112;-73
2022/10/07 04:02:46;;;;;;;13.05;4.20;;;10.10;99.90;;;;;;5053620;28;20048;-73
2022/10/07 04:05:14;;;;;;;14.20;4.13;;;10.20;99.90;;;;;;5055500;28;20613;-73
2022/10/07 04:07:42;;;;;;;13.23;4.82;;;10.30;99.90;;;;;;5053471;28;20140;-74
2022/10/07 04:10:08;;;;;;;20.25;4.65;;;10.20;99.90;;;;;;5036876;28;20090;-73
2022/10/07 04:12:34;;;;;;;18.80;4.93;;;10.10;99.90;;;;;;5054870;28;20037;-73
2022/10/07 04:15:00;;;;;;;14.85;4.70;;;10.20;99.90;;;;;;5053067;28;20033;-73
2022/10/07 04:17:27;;;;;;;15.57;4.07;;;10.20;99.90;;;;;;5054107;28;20045;-73
2022/10/07 04:19:52;;;;;;;12.70;3.70;;;10.70;99.90;;;;;;5054506;28;20068;-73
2022/10/07 04:22:18;;;;;;;27.75;4.88;;;10.20;99.90;;;;;;5054342;28;20072;-73
2022/10/07 04:25:32;;;;;;;17.65;5.07;;;10.20;99.90;;;;;;5036170;28;20037;-73
2022/10/07 04:27:30;;;;;;;13.27;4.68;;;10.20;99.90;;;;;;5052963;28;20044;-74
2022/10/07 04:29:55;;;;;;;16.83;3.67;;;10.40;99.90;;;;;;5054321;28;20403;-74
2022/10/07 04:32:21;;;;;;;17.23;3.75;;;11.00;99.90;;;;;;5052973;28;20037;-72
2022/10/07 04:34:49;;;;;;;15.50;3.95;;;10.20;99.90;;;;;;5036088;28;20482;-73
2022/10/07 04:37:15;;;;;;;16.40;4.38;;;10.30;99.90;;;;;;5054168;28;20112;-73
2022/10/07 04:39:41;;;;;;;14.57;4.93;;;10.30;99.90;;;;;;5053549;28;20116;-73
2022/10/07 04:42:07;;;;;;;15.38;4.18;;;;;;;;;;5053035;28;20041;-73
2022/10/07 04:44:32;;;;;;;14.00;4.32;;;10.30;99.90;;;;;;5053696;28;20044;-73
2022/10/07 04:46:58;;;;;;;19.45;3.53;;;10.30;99.90;;;;;;5055139;28;20505;-73
2022/10/07 04:49:25;;;;;;;18.42;4.53;;;11.10;99.90;;;;;;5070017;28;20097;-73
2022/10/07 04:51:53;;;;;;;19.10;4.65;;;10.80;99.90;;;;;;5069910;28;20061;-73
2022/10/07 04:54:20;;;;;;;20.00;5.22;;;10.30;99.90;;;;;;5048676;28;20061;-74
2022/10/07 04:56:48;;;;;;;17.65;4.65;;;10.30;99.90;;;;;;5056011;28;20448;-73
2022/10/07 04:59:14;;;;;;;20.90;5.22;;;10.40;99.90;;;;;;5036528;28;20075;-73
2022/10/07 05:01:39;;;;;;;16.98;5.10;;;10.40;99.90;;;;;;5055193;28;20048;-73
2022/10/07 05:04:05;;;;;;;18.75;4.53;;;10.40;99.90;;;;;;5053230;28;20044;-73
2022/10/07 05:06:31;;;;;;;17.25;4.18;;;10.30;99.90;;;;;;5053249;28;20076;-73
2022/10/07 05:08:57;;;;;;;20.20;4.68;;;10.30;99.90;;;;;;5054300;28;20045;-73
2022/10/07 05:11:24;;;;;;;23.02;4.90;;;10.40;99.90;;;;;;5053755;28;20086;-73
2022/10/07 05:13:51;;;;;;;17.45;4.38;;;10.30;99.90;;;;;;5060320;28;20033;-73
2022/10/07 05:16:16;;;;;;;16.75;4.28;;;10.40;99.90;;;;;;5073182;28;20048;-73
2022/10/07 05:18:42;;;;;;;12.88;5.13;;;10.60;99.90;;;;;;5073260;28;20517;-73
2022/10/07 05:21:08;;;;;;;14.15;4.53;;;10.40;99.90;;;;;;5073481;28;20445;-73
2022/10/07 05:23:35;;;;;;;16.42;4.50;;;10.40;99.90;;;;;;5072139;28;20051;-73
2022/10/07 05:26:06;;;;;;;23.60;5.72;;;10.20;99.90;;;;;;5072912;28;20044;-73
2022/10/07 05:28:32;;;;;;;21.45;5.22;;;10.50;99.90;;;;;;5043060;28;20049;-73
2022/10/07 05:31:06;;;;;;;20.38;4.75;;;10.70;99.90;;;;;;5071972;28;20036;-72
2022/10/07 05:33:33;;;;;;;15.70;4.38;;;10.50;99.90;;;;;;5073482;28;20040;-73
2022/10/07 05:35:59;;;;;;;16.38;5.10;;;10.20;99.90;;;;;;5072973;28;20048;-72
2022/10/07 05:38:25;;;;;;;19.23;4.93;;;10.20;99.90;;;;;;5073094;28;20561;-74
2022/10/07 05:40:57;;;;;;;20.75;5.28;;;10.40;99.90;;;;;;5071675;28;20403;-73
2022/10/07 05:43:24;;;;;;;24.60;6.18;;;10.40;99.90;;;;;;5071246;28;20115;-72
2022/10/07 05:45:59;;;;;;;16.48;5.55;;;10.50;99.90;;;;;;5071374;28;20044;-73
2022/10/07 05:48:24;;;;;;;27.38;5.57;;;10.40;99.90;;;;;;5073493;28;20386;-72
2022/10/07 05:50:56;;;;;;;23.17;4.25;;;10.30;99.90;;;;;;5071605;28;20043;-73
2022/10/07 05:53:25;;;;;;;22.10;5.63;;;10.50;99.90;;;;;;5055309;28;20041;-72
2022/10/07 05:55:52;;;;;;;18.48;5.20;;;;;;;;;;5071261;28;20090;-72
2022/10/07 05:58:19;;;;;;;18.25;5.65;;;10.40;99.90;;;;;;5072514;28;20132;-72
2022/10/07 06:01:05;;;;;;;19.98;5.40;;;10.40;99.90;;;;;;5069719;28;20029;-72
2022/10/07 06:03:32;;;;;;;20.23;5.88;;;10.50;99.90;;;;;;5071620;28;20032;-72
2022/10/07 06:05:59;;;;;;;25.50;7.05;;;10.40;99.90;;;;;;5065768;28;20041;-72
2022/10/07 06:08:26;;;;;;;17.55;4.68;;;10.50;99.90;;;;;;5058979;28;20112;-72
2022/10/07 06:13:36;;;;;;;13.55;4.63;;;10.50;99.90;;;;;;5065311;28;20114;-72
2022/10/07 06:16:08;;;;;;;24.42;5.85;;;10.60;99.90;;;;;;5055540;28;20078;-72
2022/10/07 06:18:37;;;;;;;22.38;6.00;;;10.60;99.90;;;;;;5050170;28;20044;-72
2022/10/07 06:21:03;;;;;;;21.25;5.25;;;10.50;99.90;;;;;;5063051;28;20044;-72
2022/10/07 06:23:29;;;;;;;14.63;5.28;;;;;;;;;;5051796;28;20510;-72
2022/10/07 06:26:04;;;;;;;22.73;6.28;;;10.60;99.90;;;;;;5062044;28;20343;-72
2022/10/07 06:28:38;;;;;;;15.88;5.70;;;10.70;99.90;;;;;;5048030;28;20041;-72
2022/10/07 06:31:06;;;;;;;16.30;6.07;;;;;;;;;;5058005;28;20041;-72
2022/10/07 06:33:32;;;;;;;21.23;5.60;;;10.70;99.90;;;;;;5043636;28;20036;-70
2022/10/07 06:36:01;;;;;;;25.40;6.35;;;10.80;99.90;;;;;;5053937;28;20040;-72
2022/10/07 06:38:26;;;;;;;24.08;7.38;;;10.70;99.90;;;;;;5057506;28;20388;-72
2022/10/07 06:41:00;;;;;;;17.33;5.47;;;10.90;99.90;;;;;;5067586;28;20105;-72
2022/10/07 06:43:26;;;;;;;;;;;10.90;99.90;;;;;;5063148;28;20045;-70
2022/10/07 06:45:51;;;;;;;15.68;6.15;;;10.90;99.90;;;;;;5055179;28;19924;-71
2022/10/07 06:48:17;;;;;;;20.17;5.97;;;11.90;99.90;;;;;;5037439;28;20633;-71
2022/10/07 06:50:54;;;;;;;18.25;5.47;;;10.90;99.90;;;;;;5059326;28;20525;-71
2022/10/07 06:53:20;;;;;;;26.83;5.80;;;10.90;99.90;;;;;;5058316;28;20402;-72
2022/10/07 06:55:46;;;;;;;16.23;4.47;;;11.00;99.90;;;;;;5053525;28;20424;-74
2022/10/07 06:58:12;;;;;;;16.05;4.75;;;11.10;99.90;;;;;;5029595;28;20040;-74
2022/10/07 07:00:38;;;;;;;16.88;5.80;;;11.00;99.90;;;;;;5067231;28;20048;-72
2022/10/07 07:03:04;;;;;;;17.73;6.15;;;11.20;99.90;;;;;;5051973;28;20095;-72
2022/10/07 07:05:38;;;;;;;21.33;5.75;;;11.10;99.90;;;;;;5069951;28;20036;-71
2022/10/07 07:08:04;;;;;;;25.20;5.97;;;11.10;99.90;;;;;;5062485;28;20516;-72
2022/10/07 07:10:30;;;;;;;19.17;5.70;;;11.30;99.90;;;;;;5060013;28;20025;-72
2022/10/07 07:12:56;;;;;;;18.73;5.43;;;11.20;99.90;;;;;;5062238;28;20432;-72
2022/10/07 07:15:22;;;;;;;19.83;6.22;;;11.20;99.90;;;;;;5060565;28;20044;-72
2022/10/07 07:17:48;;;;;;;13.73;5.28;;;11.20;99.90;;;;;;5059640;28;20033;-72
2022/10/07 07:20:14;;;;;;;18.60;6.55;;;12.20;99.90;;;;;;5064540;28;20041;-72
2022/10/07 07:22:40;;;;;;;18.40;6.00;;;11.30;99.90;;;;;;5077475;28;20052;-74
2022/10/07 07:25:08;;;;;;;29.10;6.72;;;11.70;99.90;;;;;;5049325;28;20055;-73
2022/10/07 07:27:34;;;;;;;26.40;6.18;;;11.50;99.90;;;;;;5061306;28;20044;-74
2022/10/07 07:30:01;;;;;;;21.55;5.75;;;11.70;99.90;;;;;;5034761;28;20068;-74
2022/10/07 07:32:28;;;;;;;16.55;5.43;;;11.40;99.90;;;;;;5033921;28;20405;-74
2022/10/07 07:34:55;;;;;;;21.25;5.28;;;11.60;99.90;;;;;;5049760;28;20047;-72
2022/10/07 07:37:22;;;;;;;20.20;6.00;;;12.00;99.90;;;;;;5050211;28;20095;-72
2022/10/07 07:39:47;;;;;;;17.42;5.13;;;11.70;99.90;;;;;;5069595;28;20036;-74
2022/10/07 07:42:13;;;;;;;15.13;5.07;;;11.90;99.90;;;;;;5070269;28;20409;-72
2022/10/07 07:44:39;;;;;;;15.15;5.00;;;11.80;99.90;;;;;;5071240;28;20469;-74
2022/10/07 07:47:06;;;;;;;19.15;5.50;;;11.90;99.90;;;;;;5070318;28;20036;-74
2022/10/07 07:49:32;;;;;;;21.08;5.50;;;12.00;99.90;;;;;;5071472;28;20141;-72
2022/10/07 07:51:59;;;;;;;16.50;5.65;;;11.90;99.90;;;;;;5045146;28;20464;-72
2022/10/07 07:54:29;;;;;;;12.95;4.85;;;;;;;;;;5060080;28;20090;-72
2022/10/07 07:56:56;;;;;;;12.93;5.85;;;12.00;99.90;;;;;;5052302;28;20049;-72
2022/10/07 07:59:23;;;;;;;14.90;5.00;;;12.30;99.90;;;;;;5061239;22;20037;-73
2022/10/07 08:01:48;;;;;;;14.75;4.82;;;12.30;99.90;;;;;;5030496;28;20069;-73
2022/10/07 08:04:14;;;;;;;18.95;5.03;;;12.20;99.90;;;;;;5046518;28;20079;-73
2022/10/07 08:06:40;;;;;;;11.88;4.38;;;12.50;99.90;;;;;;5031108;28;20040;-74
2022/10/07 08:09:06;;;;;;;12.77;4.47;;;12.50;99.90;;;;;;5046507;28;20042;-73
2022/10/07 08:11:32;;;;;;;15.15;4.68;;;12.60;99.90;;;;;;5030478;28;20531;-73
2022/10/07 08:13:58;;;;;;;13.32;4.88;;;12.60;99.90;;;;;;5031358;28;20044;-73
2022/10/07 08:16:27;;;;;;;25.40;5.57;;;12.80;99.90;;;;;;5022979;28;20037;-74
2022/10/07 08:18:54;;;;;;;10.75;3.83;;;12.80;99.90;;;;;;5029737;28;20539;-74
2022/10/07 08:21:23;;;;;;;18.20;4.50;;;13.20;99.90;;;;;;5015309;28;20078;-73
2022/10/07 08:23:57;;;;;;;19.85;4.57;;;12.80;99.90;;;;;;5033969;28;20052;-74
2022/10/07 08:26:24;;;;;;;14.52;4.32;;;12.80;99.90;;;;;;5032897;28;20045;-73
2022/10/07 08:28:50;;;;;;;13.40;3.92;;;13.10;99.90;;;;;;5032045;28;20037;-74
2022/10/07 08:31:18;;;;;;;14.93;3.80;;;13.20;99.90;;;;;;5032934;28;20091;-73
2022/10/07 08:33:45;;;;;;;17.73;4.28;;;13.30;99.90;;;;;;5034144;28;20033;-73
2022/10/07 08:36:14;;;;;;;15.57;4.03;;;13.40;99.90;;;;;;5032528;28;20087;-73
2022/10/07 08:38:40;;;;;;;19.42;4.50;;;13.40;99.90;;;;;;5033113;28;20072;-73
2022/10/07 08:41:15;;;;;;;14.70;4.65;;;13.20;99.90;;;;;;5032887;28;20191;-73
2022/10/07 08:43:46;;;;;;;18.70;3.83;;;13.60;99.90;;;;;;5032691;28;20055;-73
2022/10/07 08:46:15;;;;;;;18.52;4.35;;;13.60;99.90;;;;;;5033849;28;20045;-73
2022/10/07 08:48:44;;;;;;;19.23;4.85;;;13.70;99.90;;;;;;5032888;28;20392;-74
2022/10/07 08:51:38;;;;;;;15.27;5.22;;;14.00;99.90;;;;;;5031847;28;20099;-74
2022/10/07 08:54:04;;;;;;;17.30;4.40;;;13.90;99.90;;;;;;5032544;28;20041;-74
2022/10/07 08:56:32;;;;;;;15.13;3.78;;;13.80;99.90;;;;;;5032543;28;20495;-74
2022/10/07 08:59:21;;;;;;;20.73;3.80;;;13.80;99.90;;;;;;5032677;28;20126;-73
2022/10/07 09:01:55;;;;;;;27.33;4.22;;;13.90;99.90;;;;;;5032532;28;20044;-73
2022/10/07 09:04:24;;;;;;;24.85;4.65;;;14.00;99.90;;;;;;5032207;28;20402;-73
2022/10/07 09:06:54;;;;;;;14.18;3.95;;;14.20;99.90;;;;;;5033416;28;20048;-74
2022/10/07 09:09:43;;;;;;;20.77;4.25;;;14.10;99.90;;;;;;5032045;28;20030;-74
2022/10/07 09:12:54;;;;;;;15.60;4.15;;;14.20;99.90;;;;;;5015646;28;20040;-74
2022/10/07 09:15:45;;;;;;;14.95;3.70;;;14.20;99.90;;;;;;5018858;28;20107;-74
2022/10/07 09:18:38;;;;;;;20.52;3.92;;;14.30;99.90;;;;;;5024570;28;20045;-74
2022/10/07 09:21:27;;;;;;;15.45;4.55;;;14.50;99.90;;;;;;5027220;28;20045;-73
2022/10/07 09:24:04;;;;;;;11.55;4.38;;;14.20;99.90;;;;;;5040544;28;20408;-73
2022/10/07 09:26:30;;;;;;;14.45;3.95;;;14.60;99.90;;;;;;5047771;28;20496;-74
2022/10/07 09:28:57;;;;;;;15.32;4.03;;;14.60;99.90;;;;;;5032609;28;20124;-74
2022/10/07 09:31:23;;;;;;;17.75;3.83;;;15.40;99.90;;;;;;5033027;28;20041;-74
2022/10/07 09:33:51;;;;;;;19.02;4.53;;;15.40;99.90;;;;;;5028193;28;20034;-74
2022/10/07 09:36:17;;;;;;;12.02;3.67;;;14.90;99.90;;;;;;5030718;28;20132;-74
2022/10/07 09:38:46;;;;;;;22.70;5.15;;;15.20;99.90;;;;;;5032377;28;20533;-74
2022/10/07 09:41:37;;;;;;;14.25;3.20;;;15.10;99.90;;;;;;5031093;28;20093;-74
2022/10/07 09:44:11;;;;;;;14.75;4.00;;;15.00;99.90;;;;;;5011526;28;20058;-74
2022/10/07 09:46:50;;;;;;;14.95;5.15;;;15.30;99.90;;;;;;5011912;28;20068;-74
2022/10/07 09:49:28;;;;;;;16.27;4.82;;;15.10;99.90;;;;;;5011715;28;20697;-74
2022/10/07 09:52:17;;;;;;;15.95;3.95;;;14.90;99.90;;;;;;4995728;28;20125;-74
2022/10/07 09:54:48;;;;;;;14.10;3.55;;;15.30;99.90;;;;;;5012857;28;20033;-74
2022/10/07 09:57:34;;;;;;;20.27;5.15;;;15.20;99.90;;;;;;5011640;28;20041;-74
2022/10/07 10:00:12;;;;;;;22.58;3.63;;;15.20;99.90;;;;;;5027660;28;20039;-74
2022/10/07 10:02:45;;;;;;;14.52;3.55;;;15.10;99.90;;;;;;5030506;28;20052;-74
2022/10/07 10:05:33;;;;;;;16.33;3.65;;;15.30;99.90;;;;;;5047422;28;20045;-74
2022/10/07 10:08:04;;;;;;;12.60;3.40;;;15.20;99.90;;;;;;5031316;28;20049;-75
2022/10/07 10:10:32;;;;;;;17.95;3.58;;;15.50;99.90;;;;;;5047766;28;20037;-74
2022/10/07 10:13:00;;;;;;;15.57;3.42;;;15.80;99.90;;;;;;5014278;28;20038;-74
2022/10/07 10:15:34;;;;;;;18.20;3.72;;;15.60;99.90;;;;;;5029164;28;20044;-73
2022/10/07 10:18:01;;;;;;;18.67;3.78;;;15.90;99.90;;;;;;5028083;28;20111;-73
2022/10/07 10:20:42;;;;;;;15.30;3.35;;;15.70;99.90;;;;;;5031900;28;20037;-74
2022/10/07 10:24:00;;;;;;;19.90;3.92;;;16.00;99.90;;;;;;5030205;28;20033;-73
2022/10/07 10:26:29;;;;;;;16.10;4.47;;;16.20;99.90;;;;;;4997942;28;20079;-73
2022/10/07 10:29:16;;;;;;;15.48;3.80;;;16.20;99.90;;;;;;5031055;28;20441;-74
2022/10/07 10:32:00;;;;;;;20.50;5.43;;;16.20;99.90;;;;;;5031701;28;20045;-74
2022/10/07 10:34:37;;;;;;;15.35;3.72;;;16.40;99.90;;;;;;5031747;28;20060;-74
2022/10/07 10:37:09;;;;;;;17.67;3.88;;;16.50;99.90;;;;;;5008734;28;20037;-74
2022/10/07 10:39:55;;;;;;;17.55;3.15;;;16.40;99.90;;;;;;5027998;28;20041;-74
2022/10/07 10:42:31;;;;;;;12.75;3.38;;;16.50;99.90;;;;;;5030986;28;20453;-74
2022/10/07 10:45:14;;;;;;;18.33;3.67;;;16.10;99.90;;;;;;5005222;28;20033;-74
2022/10/07 10:47:50;;;;;;;;;;;16.40;99.90;;;;;;5026659;28;20084;-74
2022/10/07 10:50:32;;;;;;;17.63;3.55;;;16.30;99.90;;;;;;5033233;28;20356;-74
2022/10/07 10:53:33;;;;;;;18.38;4.70;;;16.40;99.90;;;;;;5022601;28;20037;-74
2022/10/07 10:56:14;;;;;;;15.40;3.40;;;16.50;99.90;;;;;;5013584;28;20111;-74
2022/10/07 10:58:45;;;;;;;20.83;3.55;;;16.60;99.90;;;;;;5012326;28;20977;-74
2022/10/07 11:01:45;;;;;;;15.82;3.45;;;16.70;99.90;;;;;;5012093;28;20061;-73
2022/10/07 11:04:29;;;;;;;17.00;4.60;;;16.70;99.90;;;;;;4984895;28;20133;-74
2022/10/07 11:07:20;;;;;;;13.02;3.25;;;16.80;99.90;;;;;;5024787;28;20108;-74
2022/10/07 11:09:55;;;;;;;19.35;2.97;;;17.10;99.90;;;;;;5005014;28;20048;-74
2022/10/07 11:12:37;;;;;;;15.65;3.15;;;17.10;99.90;;;;;;5029179;28;20033;-74
2022/10/07 11:15:17;;;;;;;12.68;2.90;;;17.00;99.90;;;;;;5036705;28;20577;-74
2022/10/07 11:17:46;;;;;;;8.95;2.35;;;16.90;99.90;;;;;;5029907;28;20422;-74
2022/10/07 11:20:47;;;;;;;13.60;2.58;;;17.20;99.90;;;;;;5029875;28;20411;-74
2022/10/07 11:23:13;;;;;;;15.45;3.00;;;;;;;;;;5022959;28;20107;-74
2022/10/07 11:26:04;;;;;;;18.55;3.30;;;17.30;99.90;;;;;;5030951;28;20495;-73
2022/10/07 11:28:35;;;;;;;14.80;3.03;;;17.30;99.90;;;;;;5031399;28;20041;-74
2022/10/07 11:31:20;;;;;;;9.95;2.45;;;17.10;99.90;;;;;;5029531;28;20559;-74
2022/10/07 11:34:06;;;;;;;14.02;2.83;;;17.20;99.90;;;;;;5031179;28;20037;-74
2022/10/07 11:36:47;;;;;;;14.45;2.90;;;17.30;99.90;;;;;;5031089;28;20037;-74
2022/10/07 11:39:12;;;;;;;15.40;2.25;;;17.10;99.90;;;;;;5030080;28;20045;-74
2022/10/07 11:41:45;;;;;;;12.77;2.45;;;17.00;99.90;;;;;;5031541;28;20369;-74
2022/10/07 11:44:20;;;;;;;19.73;3.22;;;17.00;99.90;;;;;;5029998;28;20051;-74
2022/10/07 11:46:47;;;;;;;15.13;3.78;;;16.90;99.90;;;;;;5030915;28;20052;-74
2022/10/07 11:49:12;;;;;;;17.65;3.38;;;16.90;99.90;;;;;;5032810;28;20048;-74
2022/10/07 11:51:51;;;;;;;17.30;2.97;;;17.00;99.90;;;;;;5033850;28;20033;-75
2022/10/07 11:54:20;;;;;;;39.35;4.65;;;16.60;99.90;;;;;;5032791;28;20041;-74
2022/10/07 11:56:51;;;;;;;24.60;3.53;;;16.80;99.90;;;;;;5033767;28;20037;-74
2022/10/07 11:59:33;;;;;;;20.90;3.65;;;16.90;99.90;;;;;;5015849;28;20037;-74
2022/10/07 12:01:59;;;;;;;13.60;3.10;;;16.90;99.90;;;;;;5033761;28;20120;-74
2022/10/07 12:04:34;;;;;;;14.95;3.08;;;16.70;99.90;;;;;;5033467;28;20041;-74
2022/10/07 12:07:33;;;;;;;14.60;3.38;;;16.80;99.90;;;;;;5016789;28;20073;-75
2022/10/07 12:10:00;;;;;;;34.72;5.75;;;16.80;99.90;;;;;;5034311;28;20466;-74
2022/10/07 12:12:46;;;;;;;27.27;5.35;;;16.90;99.90;;;;;;5033441;28;20038;-74
2022/10/07 12:15:31;;;;;;;32.15;4.82;;;16.90;99.90;;;;;;5040827;28;20113;-74
2022/10/07 12:18:03;;;;;;;13.80;3.00;;;17.00;99.90;;;;;;5033303;28;20063;-74
2022/10/07 12:20:54;;;;;;;21.63;3.38;;;16.70;99.90;;;;;;5034384;28;20499;-74
2022/10/07 12:23:24;;;;;;;17.23;2.65;;;16.70;99.90;;;;;;5033147;28;20049;-75
2022/10/07 12:25:55;;;;;;;16.15;3.17;;;16.60;99.90;;;;;;5033821;28;20116;-74
2022/10/07 12:28:47;;;;;;;14.80;2.55;;;16.60;99.90;;;;;;5016644;28;20395;-74
2022/10/07 12:31:18;;;;;;;20.63;3.03;;;16.50;99.90;;;;;;5034520;28;20041;-74
2022/10/07 12:33:44;;;;;;;15.05;2.60;;;;;;;;;;5034029;28;20099;-72
2022/10/07 12:36:25;;;;;;;11.38;2.22;;;16.60;99.90;;;;;;5034116;28;20033;-74
2022/10/07 12:41:30;;;;;;;10.60;2.35;;;16.50;99.90;;;;;;5033138;28;20099;-74
2022/10/07 12:44:07;;;;;;;13.38;2.58;;;16.50;99.90;;;;;;5032157;28;20503;-74
2022/10/07 12:46:36;;;;;;;13.10;2.72;;;16.60;99.90;;;;;;5034078;28;20049;-74
2022/10/07 12:49:24;;;;;;;14.38;2.30;;;16.50;99.90;;;;;;5026218;28;20448;-74
2022/10/07 12:51:52;;;;;;;14.77;2.45;;;16.60;99.90;;;;;;5029187;28;20503;-74
2022/10/07 12:54:24;;;;;;;10.52;2.30;;;16.60;99.90;;;;;;5008200;28;20547;-73
2022/10/07 12:56:50;;;;;;;12.70;3.20;;;16.70;99.90;;;;;;5032783;28;20153;-74
2022/10/07 12:59:59;;;;;;;13.50;2.70;;;16.60;99.90;;;;;;5033045;28;20543;-74
2022/10/07 13:02:56;;;;;;;13.32;2.45;;;16.70;99.90;;;;;;5004758;28;20049;-74
2022/10/07 13:05:56;;;;;;;10.30;2.13;;;16.80;99.90;;;;;;5012871;28;20419;-74
2022/10/07 13:09:01;;;;;;;10.30;3.20;;;16.80;99.90;;;;;;5021716;28;20037;-74
2022/10/07 13:11:51;;;;;;;14.07;2.45;;;16.90;99.90;;;;;;5015841;28;20037;-74
2022/10/07 13:15:01;;;;;;;16.15;2.20;;;16.70;99.90;;;;;;5031829;28;20076;-70